LWSK/SKP METAR and TAF weather

Enter ICAO airport designator
Station Type Date Time Source
LWSK METAR 2018/12/12 11:30 UTC NOAA

LWSK 121130Z VRB01KT CAVOK 05/M04 Q1019 NOSIG


Station Type Date Time Source
LWSK Decoded METAR 2018/12/12 11:30 UTC NOAA

Skopje-Petrovec, Macedonia, The Republic of (LWSK) 41-58N 021-39E 239M
Dec 12, 2018 - 06:30 AM EST / 2018.12.12 1130 UTC
Wind: Variable at 1 MPH (1 KT):0
Visibility: greater than 7 mile(s):0
Temperature: 41 F (5 C)
Dew Point: 24 F (-4 C)
Relative Humidity: 52%
Pressure (altimeter): 30.09 in. Hg (1019 hPa)
ob: LWSK 121130Z VRB01KT CAVOK 05/M04 Q1019 NOSIG
cycle: 11

Station Type Date Time Source
LWSK TAF 2018/12/12 12:43 UTC NOAA

TAF LWSK 121130Z 1212/1312 VRB02KT CAVOK
BECMG 1309/1311 14008KT SCT040 BKN090


Example: see airport list